createdAt,value
2023-05-07T00:02:09.650Z,94925.44
2023-05-07T00:05:18.521Z,94926.28
2023-05-07T00:08:28.819Z,94920.56
2023-05-07T00:11:38.060Z,94924.84
2023-05-07T00:14:46.575Z,94917.06
2023-05-07T00:17:55.402Z,94919.53
2023-05-07T00:21:03.963Z,94922.00
2023-05-07T00:24:14.067Z,94916.25
2023-05-07T00:27:22.838Z,94912.13
2023-05-07T00:30:31.320Z,94908.44
2023-05-07T00:33:40.678Z,94905.38
2023-05-07T00:36:49.183Z,94912.97
2023-05-07T00:39:59.196Z,94909.47
2023-05-07T00:43:07.753Z,94908.84
2023-05-07T00:46:17.064Z,94908.44
2023-05-07T00:49:31.775Z,94910.88
2023-05-07T00:52:40.883Z,94907.19
2023-05-07T00:55:51.250Z,94908.84
2023-05-07T00:59:01.319Z,94910.50
2023-05-07T01:02:10.300Z,94908.06
2023-05-07T01:05:21.214Z,94904.56
2023-05-07T01:08:31.693Z,94910.91
2023-05-07T01:11:43.654Z,94907.44
2023-05-07T01:14:52.657Z,94908.03
2023-05-07T01:18:01.239Z,94905.59
2023-05-07T01:21:17.555Z,94912.94
2023-05-07T01:24:33.668Z,94922.16
2023-05-07T01:27:43.371Z,94916.63
2023-05-07T01:30:54.896Z,94913.34
2023-05-07T01:34:06.210Z,94910.88
2023-05-07T01:37:15.407Z,94896.53
2023-05-07T01:40:26.812Z,94892.22
2023-05-07T01:43:36.082Z,94890.59
2023-05-07T01:46:44.804Z,94899.19
2023-05-07T01:49:54.345Z,94896.94
2023-05-07T01:53:04.385Z,94902.47
2023-05-07T01:56:15.677Z,94901.22
2023-05-07T01:59:25.197Z,94898.56
2023-05-07T02:02:33.903Z,94897.72
2023-05-07T02:05:42.960Z,94899.19
2023-05-07T02:09:09.915Z,94898.16
2023-05-07T02:12:21.603Z,94900.84
2023-05-07T02:15:30.252Z,94911.44
2023-05-07T02:18:40.456Z,94902.22
2023-05-07T02:21:49.045Z,94893.22
2023-05-07T02:24:57.961Z,94900.16
2023-05-07T02:28:07.958Z,94897.09
2023-05-07T02:31:26.897Z,94900.13
2023-05-07T02:34:35.843Z,94901.41
2023-05-07T02:37:44.446Z,94896.44
2023-05-07T02:40:53.093Z,94899.75
2023-05-07T02:44:03.102Z,94902.22
2023-05-07T02:47:14.006Z,94900.28
2023-05-07T02:50:23.870Z,94895.13
2023-05-07T02:53:32.772Z,94904.13
2023-05-07T02:56:41.290Z,94903.53
2023-05-07T02:59:51.722Z,94900.88
2023-05-07T03:03:02.171Z,94899.41
2023-05-07T03:06:11.463Z,94902.28
2023-05-07T03:09:20.362Z,94902.06
2023-05-07T03:12:28.980Z,94900.81
2023-05-07T03:15:38.842Z,94900.03
2023-05-07T03:18:47.435Z,94902.69
2023-05-07T03:21:56.518Z,94900.59
2023-05-07T03:25:05.517Z,94902.63
2023-05-07T03:28:13.953Z,94896.28
2023-05-07T03:31:30.373Z,94892.63
2023-05-07T03:34:39.129Z,94895.44
2023-05-07T03:37:48.876Z,94890.56
2023-05-07T03:40:58.001Z,94880.31
2023-05-07T03:44:06.985Z,94882.81
2023-05-07T03:47:17.240Z,94887.31
2023-05-07T03:50:27.358Z,94890.41
2023-05-07T03:53:36.065Z,94889.13
2023-05-07T03:56:44.627Z,94897.31
2023-05-07T03:59:53.288Z,94897.94
2023-05-07T04:03:03.252Z,94895.88
2023-05-07T04:06:13.360Z,94904.88
2023-05-07T04:09:26.252Z,94901.16
2023-05-07T04:12:34.808Z,94914.25
2023-05-07T04:15:43.976Z,94914.72
2023-05-07T04:18:58.118Z,94915.84
2023-05-07T04:22:06.726Z,94916.66
2023-05-07T04:25:15.561Z,94915.16
2023-05-07T04:28:24.370Z,94916.03
2023-05-07T04:31:33.918Z,94921.56
2023-05-07T04:34:43.825Z,94930.41
2023-05-07T04:37:52.578Z,94931.50
2023-05-07T04:41:04.864Z,94930.31
2023-05-07T04:44:13.629Z,94923.53
2023-05-07T04:47:22.590Z,94924.19
2023-05-07T04:50:32.510Z,94918.09
2023-05-07T04:53:44.209Z,94921.38
2023-05-07T04:56:53.446Z,94926.31
2023-05-07T05:00:01.964Z,94934.91
2023-05-07T05:03:13.927Z,94931.63
2023-05-07T05:06:23.982Z,94933.09
2023-05-07T05:09:34.090Z,94938.41
2023-05-07T05:12:43.474Z,94933.69
2023-05-07T05:15:52.778Z,94937.56
2023-05-07T05:19:03.703Z,94945.81
2023-05-07T05:22:19.169Z,94944.16
2023-05-07T05:25:28.614Z,94935.53
2023-05-07T05:28:38.712Z,94929.78
2023-05-07T05:31:47.484Z,94933.06
2023-05-07T05:34:56.621Z,94928.13
2023-05-07T05:38:06.623Z,94929.72
2023-05-07T05:41:16.362Z,94925.13
2023-05-07T05:44:25.231Z,94923.22
2023-05-07T05:47:33.906Z,94926.00
2023-05-07T05:50:44.744Z,94926.63
2023-05-07T05:53:54.627Z,94920.38
2023-05-07T05:57:05.127Z,94920.22
2023-05-07T06:00:14.828Z,94923.00
2023-05-07T06:03:29.026Z,94924.81
2023-05-07T06:06:40.084Z,94921.06
2023-05-07T06:09:50.340Z,94918.16
2023-05-07T06:12:59.268Z,94929.16
2023-05-07T06:16:08.956Z,94914.69
2023-05-07T06:19:19.088Z,94914.78
2023-05-07T06:22:27.901Z,94915.94
2023-05-07T06:25:38.518Z,94929.34
2023-05-07T06:28:47.444Z,94921.66
2023-05-07T06:31:57.501Z,94916.50
2023-05-07T06:35:06.809Z,94916.81
2023-05-07T06:38:18.591Z,94924.78
2023-05-07T06:41:29.440Z,94926.75
2023-05-07T06:44:42.618Z,94923.59
2023-05-07T06:47:54.780Z,94925.31
2023-05-07T06:51:05.050Z,94930.63
2023-05-07T06:54:14.521Z,94927.59
2023-05-07T06:57:26.802Z,94930.78
2023-05-07T07:00:36.007Z,94930.94
2023-05-07T07:03:44.542Z,94931.22
2023-05-07T07:06:55.915Z,94934.91
2023-05-07T07:10:05.782Z,94923.22
2023-05-07T07:13:15.901Z,94926.41
2023-05-07T07:16:24.708Z,94927.47
2023-05-07T07:19:34.161Z,94930.38
2023-05-07T07:22:45.309Z,94929.72
2023-05-07T07:25:54.785Z,94927.66
2023-05-07T07:29:05.115Z,94930.59
2023-05-07T07:32:14.268Z,94926.69
2023-05-07T07:35:25.630Z,94927.56
2023-05-07T07:38:35.039Z,94928.72
2023-05-07T07:41:44.210Z,94929.66
2023-05-07T07:44:55.029Z,94932.06
2023-05-07T07:48:05.843Z,94931.72
2023-05-07T07:51:18.604Z,94936.22
2023-05-07T07:54:27.778Z,94943.16
2023-05-07T07:57:37.040Z,94936.31
2023-05-07T08:00:48.743Z,94943.75
2023-05-07T08:03:58.992Z,94940.44
2023-05-07T08:07:08.800Z,94940.81
2023-05-07T08:10:22.631Z,94944.91
2023-05-07T08:13:35.962Z,94941.88
2023-05-07T08:16:46.461Z,94944.16
2023-05-07T08:19:55.737Z,94948.41
2023-05-07T08:23:04.451Z,94948.97
2023-05-07T08:26:14.618Z,94952.41
2023-05-07T08:29:23.924Z,94950.75
2023-05-07T08:32:34.233Z,94942.75
2023-05-07T08:35:42.963Z,94950.31
2023-05-07T08:38:53.526Z,94958.47
2023-05-07T08:42:05.655Z,94957.66
2023-05-07T08:45:16.703Z,94957.13
2023-05-07T08:48:29.295Z,94957.19
2023-05-07T08:51:46.701Z,94958.59
2023-05-07T08:54:56.519Z,94954.88
2023-05-07T08:58:07.955Z,94953.63
2023-05-07T09:01:25.864Z,94950.63
2023-05-07T09:04:37.629Z,94952.06
2023-05-07T09:07:46.868Z,94955.00
2023-05-07T09:10:56.958Z,94961.03
2023-05-07T09:14:07.488Z,94955.97
2023-05-07T09:17:21.509Z,94952.97
2023-05-07T09:20:33.141Z,94950.88
2023-05-07T09:23:43.686Z,94947.31
2023-05-07T09:26:52.685Z,94955.41
2023-05-07T09:30:01.590Z,94944.16
2023-05-07T09:33:10.947Z,94952.91
2023-05-07T09:36:25.380Z,94945.72
2023-05-07T09:39:42.934Z,94948.78
2023-05-07T09:42:52.891Z,94945.75
2023-05-07T09:46:05.483Z,94948.94
2023-05-07T09:49:22.748Z,94939.25
2023-05-07T09:52:36.339Z,94939.91
2023-05-07T09:55:49.025Z,94935.03
2023-05-07T09:59:01.373Z,94926.94
2023-05-07T10:02:14.099Z,94934.00
2023-05-07T10:05:30.813Z,94938.81
2023-05-07T10:08:44.595Z,94935.38
2023-05-07T10:11:53.882Z,94941.13
2023-05-07T10:15:05.751Z,94938.50
2023-05-07T10:18:15.937Z,94939.50
2023-05-07T10:21:29.141Z,94934.75
2023-05-07T10:24:44.722Z,94929.44
2023-05-07T10:28:01.501Z,94934.28
2023-05-07T10:31:20.536Z,94929.97
2023-05-07T10:34:37.151Z,94932.59
2023-05-07T10:37:47.679Z,94934.94
2023-05-07T10:40:58.102Z,94935.13
2023-05-07T10:44:07.094Z,94932.19
2023-05-07T10:47:19.860Z,94924.63
2023-05-07T10:50:31.872Z,94933.41
2023-05-07T10:53:44.357Z,94933.16
2023-05-07T10:57:36.703Z,94929.34
2023-05-07T11:01:04.787Z,94932.38
2023-05-07T11:04:25.447Z,94932.19
2023-05-07T11:07:55.767Z,94928.00
2023-05-07T11:11:06.023Z,94931.09
2023-05-07T11:14:47.867Z,94929.78
2023-05-07T11:18:08.083Z,94927.34
2023-05-07T11:21:37.917Z,94929.59
2023-05-07T11:25:07.941Z,94920.06
2023-05-07T11:28:17.688Z,94923.03
2023-05-07T11:31:36.816Z,94923.22
2023-05-07T11:34:46.591Z,94922.78
2023-05-07T11:38:01.341Z,94907.91
2023-05-07T11:41:11.647Z,94911.06
2023-05-07T11:44:20.439Z,94909.03
2023-05-07T11:47:33.689Z,94906.81
2023-05-07T11:50:53.728Z,94908.16
2023-05-07T11:54:02.677Z,94917.97
2023-05-07T11:57:17.783Z,94909.19
2023-05-07T12:00:26.304Z,94915.91
2023-05-07T12:03:37.479Z,94909.72
2023-05-07T12:06:46.189Z,94906.63
2023-05-07T12:09:56.139Z,94913.53
2023-05-07T12:13:05.042Z,94911.34
2023-05-07T12:16:14.536Z,94909.19
2023-05-07T12:19:25.132Z,94904.31
2023-05-07T12:22:34.052Z,94899.94
2023-05-07T12:25:47.712Z,94902.88
2023-05-07T12:28:59.538Z,94897.56
2023-05-07T12:32:08.980Z,94890.41
2023-05-07T12:35:19.589Z,94899.69
2023-05-07T12:38:28.395Z,94897.19
2023-05-07T12:41:55.179Z,94890.13
2023-05-07T12:45:11.511Z,94888.78
2023-05-07T12:48:22.367Z,94882.06
2023-05-07T12:51:32.376Z,94875.44
2023-05-07T12:54:41.103Z,94874.34
2023-05-07T12:57:52.694Z,94878.94
2023-05-07T13:01:02.863Z,94872.56
2023-05-07T13:04:12.129Z,94871.81
2023-05-07T13:07:30.766Z,94873.16
2023-05-07T13:10:39.884Z,94872.97
2023-05-07T13:13:48.602Z,94883.94
2023-05-07T13:16:57.224Z,94876.88
2023-05-07T13:20:06.774Z,94882.78
2023-05-07T13:23:16.905Z,94882.63
2023-05-07T13:26:27.127Z,94887.25
2023-05-07T13:29:36.341Z,94884.31
2023-05-07T13:32:46.612Z,94875.81
2023-05-07T13:35:55.375Z,94872.63
2023-05-07T13:39:07.152Z,94878.66
2023-05-07T13:42:15.708Z,94883.44
2023-05-07T13:45:26.934Z,94891.50
2023-05-07T13:48:36.660Z,94894.44
2023-05-07T13:51:45.450Z,94886.53
2023-05-07T13:54:56.136Z,94886.03
2023-05-07T13:58:07.402Z,94883.94
2023-05-07T14:01:16.304Z,94886.31
2023-05-07T14:04:25.135Z,94888.38
2023-05-07T14:07:33.829Z,94885.06
2023-05-07T14:10:43.761Z,94880.69
2023-05-07T14:13:52.323Z,94890.03
2023-05-07T14:17:01.389Z,94889.03
2023-05-07T14:20:11.596Z,94895.13
2023-05-07T14:23:20.585Z,94898.75
2023-05-07T14:26:30.569Z,94879.84
2023-05-07T14:29:39.038Z,94880.38
2023-05-07T14:32:47.691Z,94890.91
2023-05-07T14:35:56.619Z,94895.47
2023-05-07T14:39:05.265Z,94896.38
2023-05-07T14:42:15.503Z,94892.88
2023-05-07T14:45:24.494Z,94898.03
2023-05-07T14:48:33.008Z,94896.09
2023-05-07T14:51:41.510Z,94903.97
2023-05-07T14:54:51.783Z,94901.03
2023-05-07T14:58:02.049Z,94905.91
2023-05-07T15:01:10.741Z,94908.31
2023-05-07T15:04:19.553Z,94905.03
2023-05-07T15:07:29.436Z,94904.53
2023-05-07T15:10:41.915Z,94904.78
2023-05-07T15:13:52.333Z,94901.53
2023-05-07T15:17:01.097Z,94900.72
2023-05-07T15:20:10.799Z,94897.22
2023-05-07T15:23:19.830Z,94897.66
2023-05-07T15:26:32.429Z,94900.44
2023-05-07T15:29:42.656Z,94897.72
2023-05-07T15:32:51.728Z,94888.38
2023-05-07T15:36:00.765Z,94888.75
2023-05-07T15:39:09.668Z,94883.44
2023-05-07T15:42:18.238Z,94885.69
2023-05-07T15:45:28.528Z,94883.09
2023-05-07T15:48:37.100Z,94883.09
2023-05-07T15:51:45.799Z,94886.16
2023-05-07T15:54:54.594Z,94885.09
2023-05-07T15:58:05.098Z,94892.78
2023-05-07T16:01:15.351Z,94879.25
2023-05-07T16:04:24.171Z,94883.09
2023-05-07T16:07:32.897Z,94875.00
2023-05-07T16:10:41.412Z,94877.72
2023-05-07T16:13:50.284Z,94876.03
2023-05-07T16:17:00.384Z,94867.03
2023-05-07T16:20:12.952Z,94869.16
2023-05-07T16:23:21.674Z,94866.72
2023-05-07T16:26:30.796Z,94860.44
2023-05-07T16:29:40.017Z,94865.56
2023-05-07T16:32:50.431Z,94863.88
2023-05-07T16:35:59.147Z,94863.25
2023-05-07T16:39:07.984Z,94868.09
2023-05-07T16:42:16.480Z,94866.44
2023-05-07T16:45:25.272Z,94870.50
2023-05-07T16:48:35.253Z,94867.47
2023-05-07T16:51:44.453Z,94870.19
2023-05-07T16:54:55.146Z,94868.56
2023-05-07T16:58:04.240Z,94870.72
2023-05-07T17:01:15.429Z,94873.13
2023-05-07T17:04:25.535Z,94884.19
2023-05-07T17:07:34.160Z,94866.31
2023-05-07T17:10:43.128Z,94865.16
2023-05-07T17:13:51.988Z,94871.06
2023-05-07T17:17:00.775Z,94873.66
2023-05-07T17:20:12.328Z,94875.28
2023-05-07T17:23:21.432Z,94878.44
2023-05-07T17:26:31.569Z,94882.66
2023-05-07T17:29:40.394Z,94883.63
2023-05-07T17:32:49.252Z,94883.03
2023-05-07T17:35:59.537Z,94900.75
2023-05-07T17:39:08.349Z,94909.31
2023-05-07T17:42:16.957Z,94919.50
2023-05-07T17:45:25.533Z,94917.06
2023-05-07T17:48:34.052Z,94917.75
2023-05-07T17:51:53.853Z,94915.22
2023-05-07T17:55:03.901Z,94926.19
2023-05-07T17:58:13.060Z,94933.09
2023-05-07T18:01:22.079Z,94932.13
2023-05-07T18:04:32.151Z,94938.84
2023-05-07T18:07:41.972Z,94938.75
2023-05-07T18:10:50.494Z,94938.84
2023-05-07T18:13:59.250Z,94948.41
2023-05-07T18:17:07.744Z,94955.59
2023-05-07T18:20:16.642Z,94956.72
2023-05-07T18:23:26.937Z,94957.09
2023-05-07T18:26:35.606Z,94957.50
2023-05-07T18:29:44.388Z,94956.28
2023-05-07T18:32:52.950Z,94961.09
2023-05-07T18:36:02.269Z,94957.50
2023-05-07T18:39:12.332Z,94958.16
2023-05-07T18:42:21.346Z,94960.94
2023-05-07T18:45:30.080Z,94965.47
2023-05-07T18:48:38.616Z,94957.00
2023-05-07T18:51:47.216Z,94966.13
2023-05-07T18:54:57.892Z,94971.50
2023-05-07T18:58:06.657Z,94972.31
2023-05-07T19:01:15.449Z,94978.75
2023-05-07T19:04:24.646Z,94974.59
2023-05-07T19:07:33.453Z,94982.56
2023-05-07T19:10:43.371Z,94981.75
2023-05-07T19:13:52.161Z,94980.84
2023-05-07T19:17:01.887Z,94983.53
2023-05-07T19:20:11.722Z,94991.47
2023-05-07T19:23:20.297Z,94983.16
2023-05-07T19:26:30.739Z,94998.72
2023-05-07T19:29:39.238Z,94997.56
2023-05-07T19:32:47.919Z,95000.09
2023-05-07T19:35:58.549Z,95014.34
2023-05-07T19:39:07.832Z,95012.97
2023-05-07T19:42:20.334Z,95011.75
2023-05-07T19:45:28.926Z,95022.28
2023-05-07T19:48:37.778Z,95031.16
2023-05-07T19:51:46.385Z,95028.91
2023-05-07T19:54:55.233Z,95028.53
2023-05-07T19:58:09.023Z,95037.88
2023-05-07T20:01:17.825Z,95040.28
2023-05-07T20:04:30.400Z,95037.81
2023-05-07T20:07:39.348Z,95042.28
2023-05-07T20:10:48.856Z,95047.91
2023-05-07T20:13:58.961Z,95043.47
2023-05-07T20:17:07.664Z,95045.38
2023-05-07T20:20:16.166Z,95048.44
2023-05-07T20:23:24.964Z,95054.25
2023-05-07T20:26:33.489Z,95058.47
2023-05-07T20:29:43.285Z,95061.88
2023-05-07T20:32:53.854Z,95054.78
2023-05-07T20:36:02.782Z,95065.25
2023-05-07T20:39:14.603Z,95065.00
2023-05-07T20:42:24.466Z,95064.56
2023-05-07T20:45:34.651Z,95069.88
2023-05-07T20:48:43.450Z,95072.88
2023-05-07T20:51:52.241Z,95075.84
2023-05-07T20:55:01.148Z,95080.41
2023-05-07T20:58:09.613Z,95089.81
2023-05-07T21:01:19.601Z,95083.75
2023-05-07T21:04:29.357Z,95091.69
2023-05-07T21:07:38.139Z,95099.72
2023-05-07T21:10:46.847Z,95095.69
2023-05-07T21:13:55.385Z,95097.31
2023-05-07T21:17:07.188Z,95098.91
2023-05-07T21:20:16.232Z,95097.88
2023-05-07T21:23:25.126Z,95091.19
2023-05-07T21:26:33.958Z,95099.56
2023-05-07T21:29:42.459Z,95098.31
2023-05-07T21:32:53.054Z,95099.31
2023-05-07T21:36:01.954Z,95099.91
2023-05-07T21:39:11.089Z,95108.69
2023-05-07T21:42:21.254Z,95115.09
2023-05-07T21:45:31.294Z,95118.69
2023-05-07T21:48:41.410Z,95118.28
2023-05-07T21:51:50.140Z,95125.69
2023-05-07T21:54:58.664Z,95124.94
2023-05-07T21:58:07.564Z,95128.97
2023-05-07T22:01:16.284Z,95128.81
2023-05-07T22:04:26.340Z,95130.22
2023-05-07T22:07:34.785Z,95131.91
2023-05-07T22:10:43.373Z,95136.06
2023-05-07T22:13:52.247Z,95142.59
2023-05-07T22:17:01.084Z,95142.25
2023-05-07T22:20:12.530Z,95153.59
2023-05-07T22:23:21.458Z,95160.00
2023-05-07T22:26:29.997Z,95163.34
2023-05-07T22:29:38.545Z,95163.19
2023-05-07T22:32:47.299Z,95174.16
2023-05-07T22:35:57.385Z,95170.72
2023-05-07T22:39:07.121Z,95170.56
2023-05-07T22:42:16.286Z,95176.38
2023-05-07T22:45:24.983Z,95177.00
2023-05-07T22:48:34.926Z,95179.94
2023-05-07T22:51:45.107Z,95174.84
2023-05-07T22:54:53.672Z,95178.16
2023-05-07T22:58:03.053Z,95172.00
2023-05-07T23:01:14.884Z,95167.31
2023-05-07T23:04:23.658Z,95175.16
2023-05-07T23:07:33.684Z,95177.28
2023-05-07T23:10:42.138Z,95176.91
2023-05-07T23:13:50.632Z,95171.78
2023-05-07T23:16:59.648Z,95177.16
2023-05-07T23:20:09.501Z,95179.41
2023-05-07T23:23:19.361Z,95177.78
2023-05-07T23:26:29.327Z,95178.81
2023-05-07T23:29:39.105Z,95184.75
2023-05-07T23:32:47.954Z,95186.41
2023-05-07T23:36:03.533Z,95178.81
2023-05-07T23:39:13.724Z,95169.94
2023-05-07T23:42:22.943Z,95168.72
2023-05-07T23:45:31.703Z,95170.34
2023-05-07T23:48:40.229Z,95175.28
2023-05-07T23:51:48.867Z,95171.63
2023-05-07T23:54:59.341Z,95172.66
2023-05-07T23:58:08.104Z,95165.25
